Time;durP1;ratioP1;P1;durP2;ratioP2;P2;SDS_P1;SDS_P2;PMS_P1;PMS_P2;Temp;Humidity;BMP_temperature;BMP_pressure;BME280_temperature;BME280_humidity;BME280_pressure;Samples;Min_cycle;Max_cycle;Signal;HPM_P1;HPM_P2
2023/01/07 00:00:32;;;;;;;8.70;6.00;;;;;;;11.13;66.48;99648.91;5143541;28;20043;-71
2023/01/07 00:03:23;;;;;;;9.27;6.15;;;;;;;11.21;66.48;99649.09;5143867;28;20055;-72
2023/01/07 00:06:17;;;;;;;9.00;6.32;;;;;;;11.13;66.41;99641.78;5142656;28;20109;-73
2023/01/07 00:09:15;;;;;;;10.27;6.32;;;;;;;11.08;67.04;99636.03;5127738;28;20493;-71
2023/01/07 00:12:06;;;;;;;10.95;6.28;;;;;;;11.05;66.86;99630.97;5129511;28;20078;-72
2023/01/07 00:14:56;;;;;;;9.82;5.55;;;;;;;11.24;66.20;99641.69;5142766;28;20057;-73
2023/01/07 00:17:46;;;;;;;10.95;6.07;;;;;;;11.15;66.42;99631.03;5141237;28;20070;-73
2023/01/07 00:20:36;;;;;;;9.50;6.30;;;;;;;11.15;66.45;99642.50;5140838;28;20050;-73
2023/01/07 00:23:28;;;;;;;14.80;5.68;;;;;;;11.00;66.18;99619.94;5142939;28;20057;-70
2023/01/07 00:26:20;;;;;;;8.32;5.00;;;;;;;11.01;66.46;99630.41;5140980;28;20070;-74
2023/01/07 00:29:11;;;;;;;10.13;6.30;;;;;;;10.96;67.20;99623.78;5141540;28;20055;-74
2023/01/07 00:32:02;;;;;;;11.85;6.95;;;;;;;11.08;67.23;99630.72;5124558;28;20042;-71
2023/01/07 00:34:52;;;;;;;13.52;7.60;;;;;;;10.89;66.91;99598.75;5151672;23;20736;-72
2023/01/07 00:37:48;;;;;;;10.32;7.65;;;;;;;10.97;66.75;99620.19;5138525;28;20357;-72
2023/01/07 00:40:38;;;;;;;12.90;6.88;;;;;;;10.96;66.47;99621.16;5138713;28;20054;-73
2023/01/07 00:43:28;;;;;;;12.80;7.32;;;;;;;10.98;67.14;99619.22;5137469;28;20541;-72
2023/01/07 00:46:19;;;;;;;14.20;7.65;;;;;;;10.91;67.08;99608.28;5135676;28;20117;-72
2023/01/07 00:49:09;;;;;;;12.23;7.70;;;;;;;10.97;67.04;99609.59;5116667;28;20105;-72
2023/01/07 00:51:59;;;;;;;12.90;8.48;;;;;;;11.03;67.45;99614.38;5129180;28;20097;-72
2023/01/07 00:54:50;;;;;;;12.98;8.27;;;;;;;10.73;67.83;99612.53;5123998;28;20066;-72
2023/01/07 00:57:41;;;;;;;14.43;8.98;;;;;;;10.90;67.94;99608.44;5117172;28;20058;-74
2023/01/07 01:00:32;;;;;;;13.57;8.43;;;;;;;10.94;67.35;99601.88;5119486;28;20054;-73
2023/01/07 01:03:25;;;;;;;11.55;8.15;;;;;;;10.93;67.93;99609.00;5114967;28;20126;-72
2023/01/07 01:06:15;;;;;;;12.32;7.65;;;;;;;10.90;67.22;99598.66;5123352;28;20051;-72
2023/01/07 01:09:06;;;;;;;12.63;8.10;;;;;;;10.95;68.23;99601.72;5124686;28;20460;-72
2023/01/07 01:11:56;;;;;;;12.55;8.38;;;;;;;10.97;67.96;99585.69;5122338;28;20059;-72
2023/01/07 01:14:46;;;;;;;16.40;8.95;;;;;;;11.05;67.42;99593.81;5122353;28;20055;-72
2023/01/07 01:17:37;;;;;;;12.73;8.30;;;;;;;10.87;67.98;99583.00;5125021;28;20534;-72
2023/01/07 01:20:27;;;;;;;13.25;8.57;;;;;;;10.78;68.55;99589.91;5125989;28;20048;-72
2023/01/07 01:23:17;;;;;;;17.58;8.85;;;;;;;10.92;67.81;99590.53;5125974;28;20118;-72
2023/01/07 01:26:10;;;;;;;14.52;8.77;;;;;;;10.77;68.24;99588.25;5127987;28;20062;-73
2023/01/07 01:29:00;;;;;;;14.32;8.27;;;;;;;10.81;67.51;99584.34;5123432;28;20301;-73
2023/01/07 01:31:52;;;;;;;14.10;8.95;;;;;;;10.85;68.01;99586.75;5125084;28;20534;-72
2023/01/07 01:34:43;;;;;;;16.63;8.32;;;;;;;10.92;67.67;99585.25;5131483;28;20058;-72
2023/01/07 01:37:34;;;;;;;13.02;7.85;;;;;;;10.85;68.04;99587.56;5125192;28;20485;-73
2023/01/07 01:40:28;;;;;;;13.75;7.57;;;;;;;10.85;67.76;99589.41;5127450;28;20066;-72
2023/01/07 01:43:28;;;;;;;11.52;7.72;;;;;;;10.79;67.72;99585.44;5118194;28;20261;-72
2023/01/07 01:46:39;;;;;;;11.15;7.45;;;;;;;10.78;67.62;99579.31;5124960;28;20047;-72
2023/01/07 01:49:38;;;;;;;13.15;7.43;;;;;;;10.87;67.21;99577.69;5126729;28;20059;-72
2023/01/07 01:52:36;;;;;;;10.70;7.05;;;;;;;10.68;67.80;99565.16;5126324;28;20629;-72
2023/01/07 01:55:35;;;;;;;10.98;7.00;;;;;;;10.67;67.79;99563.47;5120937;28;20073;-72
2023/01/07 01:58:33;;;;;;;12.35;8.15;;;;;;;10.69;67.88;99572.13;5121496;28;20452;-72
2023/01/07 02:01:23;;;;;;;13.05;7.97;;;;;;;10.84;67.62;99563.84;5117062;28;20057;-72
2023/01/07 02:04:18;;;;;;;10.93;6.70;;;;;;;10.87;67.33;99569.72;5122409;28;20076;-72
2023/01/07 02:07:13;;;;;;;14.00;8.93;;;;;;;10.78;68.22;99570.50;5133378;28;20190;-72
2023/01/07 02:10:17;;;;;;;13.80;7.53;;;;;;;10.78;67.90;99571.34;5119618;28;20074;-72
2023/01/07 02:13:43;;;;;;;10.32;6.85;;;;;;;10.76;67.67;99554.75;5135151;28;20054;-72
2023/01/07 02:16:47;;;;;;;10.98;6.78;;;;;;;10.89;67.46;99559.81;5138675;28;20073;-72
2023/01/07 02:20:21;;;;;;;10.50;6.88;;;;;;;10.81;67.67;99549.88;5135188;28;20764;-73
2023/01/07 02:23:49;;;;;;;13.67;6.97;;;;;;;10.76;67.61;99552.09;5090933;28;20434;-72
2023/01/07 02:27:13;;;;;;;10.45;6.82;;;;;;;10.57;67.96;99528.09;5098714;29;20048;-72
2023/01/07 02:30:39;;;;;;;14.10;7.07;;;;;;;10.74;67.88;99555.84;5098437;29;20059;-72
2023/01/07 02:33:43;;;;;;;14.15;7.53;;;;;;;10.65;68.12;99549.50;5099030;29;20062;-72
2023/01/07 02:36:53;;;;;;;11.85;8.20;;;;;;;10.65;68.56;99538.88;5120370;28;20066;-73
2023/01/07 02:39:48;;;;;;;13.65;8.40;;;;;;;10.71;67.94;99538.38;5120403;29;20051;-72
2023/01/07 02:42:51;;;;;;;17.75;8.80;;;;;;;10.72;67.87;99534.72;5125777;28;20061;-72
2023/01/07 02:45:46;;;;;;;12.48;8.30;;;;;;;10.74;68.24;99529.31;5128228;28;20061;-73
2023/01/07 02:48:38;;;;;;;13.80;8.30;;;;;;;10.73;68.37;99523.16;5128709;28;20486;-72
2023/01/07 02:51:37;;;;;;;12.23;7.95;;;;;;;10.77;68.20;99519.28;5123303;28;20058;-72
2023/01/07 02:54:28;;;;;;;12.35;8.60;;;;;;;10.64;67.88;99497.44;5131222;28;20556;-72
2023/01/07 02:57:35;;;;;;;9.57;6.65;;;;;;;10.74;67.90;99511.56;5127373;28;20094;-72
2023/01/07 03:00:44;;;;;;;11.63;7.13;;;;;;;10.75;67.84;99509.75;5119692;28;20443;-72
2023/01/07 03:04:06;;;;;;;7.45;5.38;;;;;;;10.77;67.43;99511.31;5128548;28;20173;-73
2023/01/07 03:07:23;;;;;;;8.73;5.10;;;;;;;10.76;66.91;99508.78;5128358;28;20050;-72
2023/01/07 03:10:32;;;;;;;6.68;4.38;;;;;;;10.85;66.60;99507.16;5130533;28;20733;-73
2023/01/07 03:13:26;;;;;;;7.40;4.32;;;;;;;10.85;66.42;99481.47;5123340;28;20075;-72
2023/01/07 03:16:22;;;;;;;6.88;4.57;;;;;;;10.69;66.14;99497.84;5127386;28;20092;-72
2023/01/07 03:19:18;;;;;;;8.35;4.90;;;;;;;10.62;67.03;99490.56;5123295;28;20059;-72
2023/01/07 03:22:09;;;;;;;7.43;4.50;;;;;;;10.50;66.59;99488.00;5113407;28;20055;-72
2023/01/07 03:25:02;;;;;;;7.25;5.00;;;;;;;10.68;66.50;99484.75;5124750;28;20061;-73
2023/01/07 03:27:53;;;;;;;10.45;5.45;;;;;;;10.71;66.92;99480.00;5122654;28;20062;-72
2023/01/07 03:30:46;;;;;;;6.88;4.78;;;;;;;10.56;66.96;99462.75;5124042;28;20185;-72
2023/01/07 03:34:04;;;;;;;7.13;4.63;;;;;;;10.67;66.14;99480.44;5118041;28;20810;-72
2023/01/07 03:37:01;;;;;;;9.75;4.90;;;;;;;10.80;66.50;99476.56;5123651;28;20140;-72
2023/01/07 03:39:52;;;;;;;7.93;5.22;;;;;;;10.87;66.29;99466.25;5129520;28;20522;-72
2023/01/07 03:42:47;;;;;;;7.95;5.55;;;;;;;10.66;66.98;99453.06;5122865;28;20073;-72
2023/01/07 03:45:42;;;;;;;6.63;4.97;;;;;;;10.82;66.16;99466.66;5129730;28;20105;-72
2023/01/07 03:48:33;;;;;;;9.15;4.63;;;;;;;10.84;66.49;99468.34;5129514;28;20164;-73
2023/01/07 03:51:23;;;;;;;6.47;4.80;;;;;;;10.88;66.24;99465.28;5123739;28;20449;-72
2023/01/07 03:54:14;;;;;;;7.05;4.97;;;;;;;10.82;66.08;99466.66;5132806;28;20101;-72
2023/01/07 03:57:04;;;;;;;6.70;4.97;;;;;;;10.75;66.49;99443.44;5118152;28;20062;-73
2023/01/07 03:59:55;;;;;;;6.82;4.85;;;;;;;10.79;66.65;99448.38;5124748;28;20101;-72
2023/01/07 04:02:45;;;;;;;11.75;5.15;;;;;;;10.68;66.89;99444.97;5122730;28;20067;-73
2023/01/07 04:05:44;;;;;;;7.50;4.32;;;;;;;10.75;66.72;99444.28;5132953;28;20149;-72
2023/01/07 04:08:36;;;;;;;7.47;4.70;;;;;;;10.74;66.40;99441.78;5127317;28;20105;-73
2023/01/07 04:11:26;;;;;;;5.85;4.18;;;;;;;10.76;65.66;99431.84;5113170;28;20063;-72
2023/01/07 04:14:16;;;;;;;5.93;4.55;;;;;;;10.72;66.24;99447.22;5121705;28;20429;-73
2023/01/07 04:17:07;;;;;;;6.05;4.40;;;;;;;10.69;66.21;99425.41;5121000;28;20488;-72
2023/01/07 04:19:57;;;;;;;7.90;4.90;;;;;;;10.85;66.24;99438.19;5126007;28;20507;-72
2023/01/07 04:22:48;;;;;;;7.82;4.38;;;;;;;10.82;66.52;99428.69;5115482;28;20069;-72
2023/01/07 04:25:39;;;;;;;8.02;4.50;;;;;;;10.90;65.81;99425.38;5123831;28;20053;-73
2023/01/07 04:28:31;;;;;;;7.32;4.60;;;;;;;10.90;66.09;99428.03;5121011;28;20043;-72
2023/01/07 04:31:22;;;;;;;7.50;4.20;;;;;;;10.87;66.68;99429.13;5129936;28;20130;-73
2023/01/07 04:34:12;;;;;;;5.55;4.18;;;;;;;10.81;66.61;99417.22;5130252;28;20443;-72
2023/01/07 04:37:02;;;;;;;7.50;4.15;;;;;;;10.67;67.00;99414.97;5126273;28;20058;-73
2023/01/07 04:39:52;;;;;;;6.68;4.60;;;;;;;10.66;66.50;99410.63;5128669;28;20105;-72
2023/01/07 04:42:43;;;;;;;8.43;4.07;;;;;;;10.72;66.81;99418.03;5118470;28;20174;-73
2023/01/07 04:45:33;;;;;;;6.40;4.13;;;;;;;10.69;67.05;99412.16;5121200;28;20053;-72
2023/01/07 04:48:23;;;;;;;6.97;4.40;;;;;;;10.69;67.31;99410.34;5123473;28;20059;-72
2023/01/07 04:51:16;;;;;;;14.98;8.57;;;;;;;10.60;67.84;99400.56;5126198;28;20162;-72
2023/01/07 04:54:06;;;;;;;17.83;9.57;;;;;;;10.65;67.93;99405.44;5122764;28;20058;-72
2023/01/07 04:56:56;;;;;;;23.52;12.73;;;;;;;10.56;68.82;99397.34;5119158;28;20569;-73
2023/01/07 04:59:47;;;;;;;19.88;11.02;;;;;;;10.61;68.34;99399.56;5120618;28;20050;-72
2023/01/07 05:02:37;;;;;;;20.35;11.38;;;;;;;10.65;68.08;99395.69;5121635;28;20059;-72
2023/01/07 05:05:27;;;;;;;12.95;8.38;;;;;;;10.52;67.93;99387.94;5123854;28;20063;-72
2023/01/07 05:08:18;;;;;;;8.30;3.55;;;;;;;10.53;66.01;99379.03;5126995;28;20046;-73
2023/01/07 05:11:09;;;;;;;4.25;3.10;;;;;;;10.70;65.26;99392.66;5128242;28;20058;-72
2023/01/07 05:14:03;;;;;;;4.78;3.50;;;;;;;10.62;64.60;99389.81;5127115;28;20055;-72
2023/01/07 05:16:56;;;;;;;6.00;2.97;;;;;;;10.54;65.00;99388.66;5122638;28;20094;-72
2023/01/07 05:19:49;;;;;;;4.88;3.00;;;;;;;10.69;64.95;99386.47;5116543;28;20505;-72
2023/01/07 05:22:39;;;;;;;4.82;3.05;;;;;;;10.73;64.93;99387.91;5124384;28;20055;-72
2023/01/07 05:25:32;;;;;;;5.03;3.22;;;;;;;10.68;64.29;99379.50;5124412;28;20059;-72
2023/01/07 05:28:23;;;;;;;5.38;3.47;;;;;;;10.78;64.16;99377.72;5116813;28;20150;-72
2023/01/07 05:31:13;;;;;;;6.80;3.83;;;;;;;10.64;64.88;99366.66;5112074;28;20098;-72
2023/01/07 05:34:03;;;;;;;5.03;3.47;;;;;;;10.81;65.06;99368.66;5115420;28;20077;-72
2023/01/07 05:36:54;;;;;;;7.07;3.55;;;;;;;10.65;65.27;99353.25;5123846;28;20054;-73
2023/01/07 05:39:44;;;;;;;4.68;3.20;;;;;;;10.74;64.97;99373.66;5113942;28;20153;-72
2023/01/07 05:42:39;;;;;;;5.00;3.35;;;;;;;10.78;64.61;99359.16;5120003;28;20510;-72
2023/01/07 05:45:29;;;;;;;4.53;2.88;;;;;;;10.89;64.31;99360.84;5111398;28;20509;-72
2023/01/07 05:48:20;;;;;;;5.10;3.30;;;;;;;10.82;64.84;99357.88;5123633;28;20138;-72
2023/01/07 05:51:10;;;;;;;23.50;8.57;;;;;;;10.86;64.91;99353.19;5127720;28;20525;-73
2023/01/07 05:54:00;;;;;;;6.65;4.10;;;;;;;10.85;65.21;99345.34;5125578;28;20047;-72
2023/01/07 05:56:50;;;;;;;6.95;3.08;;;;;;;10.81;65.07;99336.81;5122363;28;20055;-72
2023/01/07 05:59:40;;;;;;;5.43;3.55;;;;;;;10.78;64.62;99343.22;5123579;28;20063;-72
2023/01/07 06:02:30;;;;;;;6.22;3.40;;;;;;;10.88;64.76;99343.25;5126709;28;20055;-72
2023/01/07 06:05:21;;;;;;;4.78;3.35;;;;;;;10.85;64.07;99337.38;5128487;28;20422;-72
2023/01/07 06:08:12;;;;;;;4.80;3.22;;;;;;;10.81;65.10;99336.81;5128343;28;20491;-72
2023/01/07 06:11:03;;;;;;;5.85;4.20;;;;;;;10.75;64.35;99324.94;5131508;28;20066;-73
2023/01/07 06:13:54;;;;;;;5.90;3.75;;;;;;;10.71;64.00;99326.19;5122161;28;20121;-72
2023/01/07 06:16:44;;;;;;;5.00;3.10;;;;;;;10.87;64.16;99330.13;5129372;28;20108;-72
2023/01/07 06:19:34;;;;;;;7.93;4.43;;;;;;;10.93;64.21;99326.94;5121881;28;20496;-72
2023/01/07 06:22:24;;;;;;;10.45;4.80;;;;;;;10.84;64.38;99333.06;5124244;28;20102;-73
2023/01/07 06:25:15;;;;;;;5.05;3.60;;;;;;;10.84;64.81;99330.41;5126585;28;20059;-72
2023/01/07 06:28:04;;;;;;;5.40;3.40;;;;;;;10.28;65.12;99279.63;5126580;28;20059;-73
2023/01/07 06:30:55;;;;;;;4.35;2.60;;;;;;;10.64;65.39;99326.88;5130035;28;20520;-72
2023/01/07 06:33:45;;;;;;;4.68;3.13;;;;;;;10.72;65.17;99322.56;5129454;28;20162;-72
2023/01/07 06:36:35;;;;;;;4.78;3.22;;;;;;;10.51;65.09;99305.91;5123286;28;20429;-73
2023/01/07 06:39:26;;;;;;;6.45;3.13;;;;;;;10.70;65.30;99319.22;5131899;28;20532;-73
2023/01/07 06:42:16;;;;;;;5.18;3.25;;;;;;;10.71;65.38;99320.06;5129295;28;20069;-73
2023/01/07 06:45:06;;;;;;;6.18;3.78;;;;;;;10.78;65.02;99323.81;5126758;28;20189;-73
2023/01/07 06:47:57;;;;;;;7.47;3.55;;;;;;;10.69;65.22;99316.69;5124962;28;20276;-73
2023/01/07 06:50:47;;;;;;;4.70;3.30;;;;;;;10.70;65.28;99313.91;5124534;28;20422;-72
2023/01/07 06:53:37;;;;;;;4.50;3.08;;;;;;;10.61;65.63;99306.78;5134440;28;20066;-73
2023/01/07 06:56:27;;;;;;;6.03;3.45;;;;;;;10.72;64.88;99301.34;5122603;28;20057;-73
2023/01/07 06:59:17;;;;;;;8.30;4.18;;;;;;;10.78;65.03;99299.97;5117601;28;20058;-73
2023/01/07 07:02:17;;;;;;;8.27;3.88;;;;;;;10.68;65.67;99304.41;5128070;28;20088;-72
2023/01/07 07:05:07;;;;;;;5.55;3.47;;;;;;;10.67;65.54;99300.09;5129640;28;20153;-72
2023/01/07 07:07:59;;;;;;;5.72;4.30;;;;;;;10.58;65.64;99293.78;5125615;28;20059;-72
2023/01/07 07:10:49;;;;;;;5.50;3.78;;;;;;;10.58;65.73;99299.91;5124040;28;20054;-72
2023/01/07 07:13:39;;;;;;;5.38;3.55;;;;;;;10.56;65.30;99285.97;5120517;28;20090;-72
2023/01/07 07:16:30;;;;;;;7.95;4.10;;;;;;;10.53;65.61;99285.41;5123590;28;20520;-72
2023/01/07 07:19:22;;;;;;;6.22;3.60;;;;;;;10.66;65.30;99295.75;5133932;28;20053;-73
2023/01/07 07:22:12;;;;;;;5.25;3.72;;;;;;;10.65;65.50;99294.91;5126092;28;20093;-73
2023/01/07 07:25:03;;;;;;;6.53;3.80;;;;;;;10.65;65.29;99300.22;5126893;28;20091;-72
2023/01/07 07:27:53;;;;;;;8.68;4.10;;;;;;;10.64;65.36;99287.09;5126775;28;20051;-72
2023/01/07 07:30:43;;;;;;;5.32;3.95;;;;;;;10.66;64.98;99279.81;5129621;28;20058;-73
2023/01/07 07:33:36;;;;;;;6.63;4.25;;;;;;;10.65;65.01;99278.16;5129039;28;20051;-72
2023/01/07 07:36:26;;;;;;;5.47;3.97;;;;;;;10.53;65.61;99286.25;5129515;28;20070;-72
2023/01/07 07:39:16;;;;;;;5.40;4.22;;;;;;;10.54;65.39;99282.63;5130195;28;20077;-73
2023/01/07 07:42:06;;;;;;;10.73;4.72;;;;;;;10.51;65.37;99268.78;5123455;28;20118;-72
2023/01/07 07:44:58;;;;;;;5.80;4.18;;;;;;;10.56;65.58;99282.47;5128366;28;20065;-72
2023/01/07 07:47:48;;;;;;;8.27;4.15;;;;;;;10.72;65.26;99279.28;5128046;28;20209;-72
2023/01/07 07:50:38;;;;;;;7.72;4.25;;;;;;;10.68;65.72;99276.06;5129565;28;20437;-72
2023/01/07 07:53:28;;;;;;;8.77;5.18;;;;;;;10.65;66.00;99276.34;5131889;28;20516;-72
2023/01/07 07:56:18;;;;;;;7.43;4.47;;;;;;;10.60;65.16;99257.38;5121621;28;20130;-73
2023/01/07 07:59:09;;;;;;;10.32;4.20;;;;;;;10.74;64.57;99267.56;5124308;28;20502;-73
2023/01/07 08:01:59;;;;;;;7.25;4.68;;;;;;;10.70;65.28;99258.22;5133024;28;20051;-73
2023/01/07 08:04:49;;;;;;;5.78;3.78;;;;;;;10.79;63.85;99278.63;5121879;29;20102;-73
2023/01/07 08:07:41;;;;;;;3.50;2.40;;;;;;;10.98;62.17;99269.81;5111631;28;20114;-73
2023/01/07 08:10:31;;;;;;;3.42;1.60;;;;;;;11.15;59.24;99265.59;5114336;29;20137;-73
2023/01/07 08:13:21;;;;;;;3.15;1.40;;;;;;;11.20;58.71;99265.22;5114277;29;20071;-73
2023/01/07 08:16:11;;;;;;;1.90;1.45;;;;;;;11.04;59.93;99266.59;5101548;29;20533;-72
2023/01/07 08:19:02;;;;;;;2.40;1.60;;;;;;;10.92;59.68;99265.06;5101659;29;20100;-73
2023/01/07 08:21:52;;;;;;;2.28;1.67;;;;;;;11.22;58.74;99265.88;5100990;29;20508;-72
2023/01/07 08:24:42;;;;;;;3.35;1.80;;;;;;;11.21;59.16;99253.59;5112353;29;20617;-71
2023/01/07 08:27:32;;;;;;;2.10;1.50;;;;;;;11.08;59.74;99255.72;5117765;29;20505;-72
2023/01/07 08:30:22;;;;;;;2.20;1.40;;;;;;;11.04;59.40;99241.88;5121373;29;20055;-75
2023/01/07 08:33:12;;;;;;;2.95;1.58;;;;;;;11.15;59.55;99244.38;5116622;28;20134;-73
2023/01/07 08:36:05;;;;;;;1.92;1.27;;;;;;;11.07;59.13;99243.44;5121604;28;20580;-75
2023/01/07 08:39:01;;;;;;;1.70;1.40;;;;;;;11.10;58.82;99236.03;5124009;28;20648;-74
2023/01/07 08:41:51;;;;;;;1.80;1.20;;;;;;;11.16;59.22;99256.69;5122118;28;20083;-75
2023/01/07 08:44:41;;;;;;;1.90;1.40;;;;;;;11.06;60.50;99255.88;5129890;28;20081;-75
2023/01/07 08:47:31;;;;;;;1.25;1.15;;;;;;;11.06;59.88;99245.25;5129677;28;20057;-74
2023/01/07 08:50:21;;;;;;;1.63;1.20;;;;;;;11.04;59.73;99236.56;5126370;28;20050;-75
2023/01/07 08:53:11;;;;;;;1.30;1.10;;;;;;;11.10;59.34;99235.19;5123094;28;20062;-74
2023/01/07 08:56:01;;;;;;;1.40;1.23;;;;;;;11.13;59.54;99240.22;5123011;28;20420;-73
2023/01/07 08:58:51;;;;;;;1.30;1.10;;;;;;;11.15;59.03;99239.06;5121726;28;20121;-74
2023/01/07 09:01:41;;;;;;;2.22;1.40;;;;;;;11.19;59.25;99242.28;5126566;28;20039;-74
2023/01/07 09:04:31;;;;;;;1.20;1.10;;;;;;;11.18;59.83;99240.59;5123865;28;20046;-75
2023/01/07 09:07:21;;;;;;;3.08;1.52;;;;;;;11.19;60.09;99239.63;5131240;28;20051;-75
2023/01/07 09:10:11;;;;;;;2.03;1.40;;;;;;;11.14;60.95;99233.91;5131546;28;20559;-74
2023/01/07 09:13:01;;;;;;;2.25;1.27;;;;;;;11.11;59.33;99227.06;5118793;28;20074;-74
2023/01/07 09:15:52;;;;;;;1.38;1.23;;;;;;;11.20;60.17;99228.88;5122977;28;20062;-72
2023/01/07 09:18:42;;;;;;;2.15;1.40;;;;;;;11.28;59.86;99222.84;5127162;28;20050;-73
2023/01/07 09:21:32;;;;;;;2.15;1.67;;;;;;;11.35;60.60;99234.56;5125323;28;20067;-74
2023/01/07 09:24:22;;;;;;;1.55;1.33;;;;;;;11.32;59.40;99218.94;5124951;28;20054;-74
2023/01/07 09:27:15;;;;;;;2.63;1.60;;;;;;;11.36;59.80;99235.44;5114036;28;20064;-72
2023/01/07 09:30:06;;;;;;;1.73;1.50;;;;;;;11.38;60.25;99231.63;5109129;28;20051;-73
2023/01/07 09:32:56;;;;;;;3.15;1.65;;;;;;;11.37;59.35;99235.28;5109050;28;20044;-73
2023/01/07 09:35:47;;;;;;;1.50;1.15;;;;;;;11.51;58.05;99233.97;5123765;28;20043;-72
2023/01/07 09:38:37;;;;;;;2.25;1.45;;;;;;;11.46;58.78;99229.13;5117041;28;20141;-74
2023/01/07 09:41:34;;;;;;;2.35;1.60;;;;;;;11.48;59.35;99223.66;5114535;28;20066;-72
2023/01/07 09:44:24;;;;;;;1.98;1.60;;;;;;;11.58;60.12;99232.41;5117605;28;20058;-72
2023/01/07 09:47:17;;;;;;;2.33;1.80;;;;;;;11.48;58.46;99200.56;5109912;28;20055;-74
2023/01/07 09:50:29;;;;;;;3.15;1.58;;;;;;;11.88;57.21;99227.88;5132218;28;20061;-74
2023/01/07 09:53:33;;;;;;;1.73;1.60;;;;;;;11.90;56.42;99218.78;5127197;28;20058;-71
2023/01/07 09:56:27;;;;;;;2.97;1.97;;;;;;;12.07;56.48;99219.81;5126356;28;20054;-73
2023/01/07 09:59:17;;;;;;;3.13;1.85;;;;;;;12.31;55.39;99211.28;5115462;28;20066;-73
2023/01/07 10:02:27;;;;;;;1.88;1.40;;;;;;;12.43;54.88;99212.75;5122233;28;20055;-72
2023/01/07 10:05:32;;;;;;;3.75;1.60;;;;;;;12.35;55.05;99206.50;5120486;28;20042;-74
2023/01/07 10:08:50;;;;;;;3.33;2.00;;;;;;;12.18;55.34;99198.34;5123220;28;20428;-71
2023/01/07 10:12:00;;;;;;;2.42;1.73;;;;;;;12.49;54.51;99202.50;5112050;29;20043;-71
2023/01/07 10:15:13;;;;;;;2.80;1.70;;;;;;;12.36;55.87;99193.06;5116302;28;20063;-71
2023/01/07 10:18:36;;;;;;;3.28;1.90;;;;;;;12.22;56.24;99190.94;5120682;28;20051;-71
2023/01/07 10:21:50;;;;;;;2.70;2.10;;;;;;;12.63;54.32;99181.53;5127228;28;20178;-72
2023/01/07 10:24:46;;;;;;;4.63;2.45;;;;;;;12.20;55.80;99172.44;5141029;28;20066;-71
2023/01/07 10:27:39;;;;;;;4.32;2.22;;;;;;;12.23;56.27;99177.47;5119103;29;20054;-71
2023/01/07 10:30:38;;;;;;;4.28;2.15;;;;;;;12.51;56.16;99163.28;5101543;29;20075;-71
2023/01/07 10:33:32;;;;;;;4.03;2.45;;;;;;;12.51;56.04;99169.44;5100472;29;20657;-70
2023/01/07 10:36:38;;;;;;;4.35;2.33;;;;;;;12.42;54.67;99170.38;5101302;29;20063;-71
2023/01/07 10:39:49;;;;;;;3.97;2.38;;;;;;;12.51;55.96;99163.28;5101332;29;20062;-72
2023/01/07 10:42:49;;;;;;;2.92;2.22;;;;;;;12.73;54.33;99162.00;5119615;29;20481;-71
2023/01/07 10:46:05;;;;;;;3.90;2.50;;;;;;;12.66;54.13;99149.28;5119858;29;20163;-71
2023/01/07 10:49:27;;;;;;;3.83;2.65;;;;;;;12.46;55.06;99137.97;5121032;29;20062;-72
2023/01/07 10:52:27;;;;;;;4.10;2.30;;;;;;;12.54;54.50;99136.38;5121097;29;20043;-71
2023/01/07 10:55:30;;;;;;;3.25;2.08;;;;;;;12.52;54.07;99139.22;5115679;29;20062;-71
2023/01/07 10:58:21;;;;;;;3.60;2.47;;;;;;;12.68;54.29;99128.72;5124561;28;20054;-71
2023/01/07 11:01:33;;;;;;;3.00;1.83;;;;;;;12.70;53.89;99126.72;5126735;28;20050;-70
2023/01/07 11:04:25;;;;;;;5.30;2.22;;;;;;;12.43;54.64;99117.00;5134735;28;20062;-70
2023/01/07 11:07:27;;;;;;;4.38;2.45;;;;;;;12.93;52.23;99105.75;5133704;28;20053;-70
2023/01/07 11:10:23;;;;;;;3.53;2.45;;;;;;;12.83;53.10;99106.84;5133073;28;20050;-70
2023/01/07 11:13:20;;;;;;;3.45;2.25;;;;;;;12.56;53.84;99100.66;5121384;28;20055;-70
2023/01/07 11:16:16;;;;;;;3.83;2.55;;;;;;;13.00;52.73;99097.16;5125862;28;20509;-70
2023/01/07 11:19:09;;;;;;;3.55;2.20;;;;;;;12.90;52.63;99087.44;5130495;28;20048;-70
2023/01/07 11:22:00;;;;;;;3.88;2.60;;;;;;;12.64;52.97;99082.09;5127248;28;20043;-71
2023/01/07 11:24:50;;;;;;;3.75;2.40;;;;;;;12.97;52.43;99068.19;5127722;28;20224;-71
2023/01/07 11:27:44;;;;;;;3.75;2.67;;;;;;;12.89;52.27;99077.78;5122245;28;20161;-71
2023/01/07 11:30:35;;;;;;;3.97;2.63;;;;;;;12.52;53.48;99053.25;5127811;28;20050;-71
2023/01/07 11:33:36;;;;;;;3.83;2.55;;;;;;;12.42;53.24;99059.50;5131117;28;20418;-71
2023/01/07 11:36:46;;;;;;;4.63;3.22;;;;;;;12.25;54.25;99051.53;5134902;28;20054;-70
2023/01/07 11:39:36;;;;;;;5.78;2.75;;;;;;;12.45;53.94;99043.25;5131440;28;20546;-73
2023/01/07 11:42:38;;;;;;;3.33;2.30;;;;;;;12.92;53.27;99044.72;5119608;28;20519;-72
2023/01/07 11:45:47;;;;;;;4.05;2.72;;;;;;;12.63;53.13;99027.22;5131173;28;20174;-70
2023/01/07 11:48:59;;;;;;;3.78;2.55;;;;;;;12.49;53.86;99035.78;5127683;28;20051;-70
2023/01/07 11:51:50;;;;;;;4.18;2.53;;;;;;;12.44;53.11;99030.91;5124758;28;20077;-72
2023/01/07 11:54:39;;;;;;;4.15;2.90;;;;;;;12.30;54.46;99028.81;5134768;28;20632;-72
2023/01/07 11:57:30;;;;;;;4.90;3.00;;;;;;;12.28;53.92;99014.84;5124618;28;20524;-70
2023/01/07 12:00:20;;;;;;;5.45;3.10;;;;;;;12.88;53.64;99011.41;5129290;28;20513;-70
2023/01/07 12:03:13;;;;;;;4.90;3.05;;;;;;;12.69;54.62;98996.53;5128464;28;20047;-72
2023/01/07 12:06:10;;;;;;;4.78;2.97;;;;;;;12.87;53.85;99004.44;5125159;28;20429;-71
2023/01/07 12:09:22;;;;;;;4.90;3.42;;;;;;;12.68;52.87;98985.06;5122268;28;20538;-71
2023/01/07 12:12:33;;;;;;;4.63;3.20;;;;;;;12.65;54.82;98977.38;5123918;28;20074;-72
2023/01/07 12:15:26;;;;;;;6.55;3.88;;;;;;;11.95;56.37;98974.72;5125098;28;20130;-71
2023/01/07 12:18:34;;;;;;;6.15;3.80;;;;;;;12.01;55.25;98973.25;5127867;28;20074;-71
2023/01/07 12:21:33;;;;;;;5.75;3.80;;;;;;;12.06;55.60;98963.00;5123683;28;20046;-71
2023/01/07 12:25:02;;;;;;;5.45;3.75;;;;;;;12.25;55.78;98956.69;5129945;28;20062;-72
2023/01/07 12:28:09;;;;;;;7.57;4.30;;;;;;;12.42;56.01;98939.00;5120174;28;20047;-71
2023/01/07 12:31:30;;;;;;;5.65;3.75;;;;;;;11.34;58.19;98934.75;5128927;28;20063;-71
2023/01/07 12:34:38;;;;;;;7.53;3.95;;;;;;;11.62;57.13;98927.56;5131211;28;20537;-70
2023/01/07 12:37:56;;;;;;;6.72;4.20;;;;;;;11.01;59.46;98908.69;5127224;28;20102;-71
2023/01/07 12:40:58;;;;;;;6.40;3.95;;;;;;;11.55;58.10;98916.69;5132195;28;20053;-71
2023/01/07 12:44:09;;;;;;;5.40;3.58;;;;;;;11.80;58.00;98911.63;5122514;28;20051;-71
2023/01/07 12:47:10;;;;;;;6.30;3.90;;;;;;;12.01;58.04;98903.34;5129679;28;20050;-71
2023/01/07 12:50:26;;;;;;;6.38;4.38;;;;;;;11.88;56.48;98885.13;5129211;28;20054;-71
2023/01/07 12:53:27;;;;;;;6.65;4.32;;;;;;;12.19;56.05;98891.69;5131810;28;20128;-71
2023/01/07 12:56:26;;;;;;;6.15;3.90;;;;;;;11.86;56.67;98895.09;5131535;28;20093;-72
2023/01/07 12:59:37;;;;;;;6.28;3.90;;;;;;;12.19;56.33;98901.47;5124872;28;20053;-71
2023/01/07 13:02:50;;;;;;;9.05;4.90;;;;;;;11.78;56.98;98890.50;5125122;28;20515;-71
2023/01/07 13:06:04;;;;;;;6.70;3.97;;;;;;;11.45;57.76;98884.91;5130387;28;20080;-71
2023/01/07 13:09:02;;;;;;;6.43;3.70;;;;;;;11.79;57.00;98878.06;5124008;28;20062;-70
2023/01/07 13:15:32;;;;;;;7.80;3.63;;;;;;;11.48;57.37;98873.16;5122100;28;20528;-70
2023/01/07 13:18:22;;;;;;;7.03;4.15;;;;;;;11.88;57.70;98872.69;5123902;28;20129;-71
2023/01/07 13:21:16;;;;;;;6.07;4.03;;;;;;;11.85;56.12;98856.22;5127090;28;20074;-71
2023/01/07 13:24:28;;;;;;;5.45;3.60;;;;;;;12.10;55.91;98873.19;5123053;28;20043;-70
2023/01/07 13:28:03;;;;;;;5.72;3.72;;;;;;;12.35;55.00;98866.16;5125165;28;20167;-72
2023/01/07 13:31:12;;;;;;;;;;;;;;;12.18;55.99;98859.91;5125705;28;20055;-71
2023/01/07 13:34:15;;;;;;;7.38;3.97;;;;;;;12.11;55.74;98842.94;5127859;28;19961;-71
2023/01/07 13:37:17;;;;;;;4.93;3.42;;;;;;;11.88;56.52;98838.13;5123462;28;20062;-70
2023/01/07 13:40:22;;;;;;;6.18;3.72;;;;;;;11.89;56.99;98833.69;5126355;28;20074;-73
2023/01/07 13:43:43;;;;;;;5.60;4.00;;;;;;;12.31;56.26;98848.88;5119891;28;20055;-71
2023/01/07 13:46:37;;;;;;;5.93;3.55;;;;;;;12.26;56.03;98837.88;5130667;28;20062;-72
2023/01/07 13:49:31;;;;;;;4.82;3.45;;;;;;;12.13;55.30;98839.13;5120381;28;20059;-72